Time;durP1;ratioP1;P1;durP2;ratioP2;P2;SDS_P1;SDS_P2;PMS_P1;PMS_P2;Temp;Humidity;BMP_temperature;BMP_pressure;BME280_temperature;BME280_humidity;BME280_pressure;Samples;Min_cycle;Max_cycle;Signal;HPM_P1;HPM_P2
2021/11/22 00:00:59;;;;;;;19.65;4.75;;;;;;;2.87;94.24;101588.44;5027116;28;20037;-67
2021/11/22 00:03:24;;;;;;;28.88;4.70;;;;;;;2.88;94.12;101587.53;5027461;28;20037;-67
2021/11/22 00:05:50;;;;;;;17.73;4.13;;;;;;;2.86;94.25;101589.34;5029660;28;20037;-67
2021/11/22 00:08:16;;;;;;;17.35;5.38;;;;;;;2.86;94.83;101591.91;5030641;28;20431;-67
2021/11/22 00:10:41;;;;;;;17.60;5.80;;;;;;;2.90;94.15;101593.38;5026200;28;20033;-67
2021/11/22 00:13:10;;;;;;;18.40;5.43;;;;;;;2.90;94.41;101580.56;5034755;28;20418;-67
2021/11/22 00:15:36;;;;;;;15.57;3.97;;;;;;;2.89;94.18;101593.47;5028979;28;21301;-67
2021/11/22 00:18:01;;;;;;;14.73;3.90;;;;;;;2.84;94.48;101588.59;5033148;28;20423;-67
2021/11/22 00:20:27;;;;;;;12.88;3.55;;;;;;;2.83;94.43;101592.06;5030020;28;20040;-67
2021/11/22 00:22:53;;;;;;;17.25;4.35;;;;;;;2.81;94.17;101596.47;5026020;28;20128;-67
2021/11/22 00:25:19;;;;;;;10.18;4.10;;;;;;;2.79;94.67;101607.69;5029365;28;20025;-67
2021/11/22 00:27:45;;;;;;;14.45;3.50;;;;;;;2.77;94.49;101596.72;5032341;28;20438;-67
2021/11/22 00:30:27;;;;;;;13.23;4.18;;;;;;;2.75;94.53;101599.38;5028698;28;20037;-67
2021/11/22 00:32:58;;;;;;;9.20;3.83;;;;;;;2.75;94.42;101595.97;5028794;28;20511;-67
2021/11/22 00:36:03;;;;;;;19.50;4.22;;;;;;;2.71;94.79;101611.53;5010064;28;20046;-67
2021/11/22 00:38:28;;;;;;;11.20;3.63;;;;;;;2.70;94.38;101617.53;5018548;28;20037;-67
2021/11/22 00:40:54;;;;;;;17.65;4.68;;;;;;;2.66;94.23;101616.06;5003630;28;20033;-67
2021/11/22 00:43:21;;;;;;;20.13;6.15;;;;;;;2.66;94.51;101620.38;5033753;28;20065;-66
2021/11/22 00:45:56;;;;;;;13.70;4.60;;;;;;;2.61;93.98;101630.84;5027711;28;20026;-67
2021/11/22 00:48:22;;;;;;;10.73;3.60;;;;;;;2.58;93.86;101627.63;5033384;28;20060;-66
2021/11/22 00:50:53;;;;;;;12.05;3.10;;;;;;;2.56;94.08;101630.28;5017790;28;20083;-67
2021/11/22 00:53:18;;;;;;;14.43;3.60;;;;;;;2.56;94.48;101634.56;5032600;28;20029;-66
2021/11/22 00:55:46;;;;;;;14.50;4.18;;;;;;;2.52;94.76;101634.75;5038819;28;20025;-66
2021/11/22 00:58:14;;;;;;;12.23;3.83;;;;;;;2.53;94.87;101638.97;5037486;28;20048;-66
2021/11/22 01:00:40;;;;;;;17.40;3.65;;;;;;;2.51;94.96;101648.47;5032278;28;20037;-66
2021/11/22 01:03:06;;;;;;;13.25;4.10;;;;;;;2.48;94.94;101653.72;5041804;28;20039;-67
2021/11/22 01:05:33;;;;;;;15.65;3.53;;;;;;;2.53;95.00;101650.94;5027047;28;20025;-67
2021/11/22 01:08:00;;;;;;;11.35;3.53;;;;;;;2.48;94.94;101658.03;5036927;28;20068;-66
2021/11/22 01:10:26;;;;;;;13.05;3.58;;;;;;;2.47;94.89;101661.53;5032599;28;20025;-67
2021/11/22 01:12:51;;;;;;;14.43;3.85;;;;;;;2.45;95.11;101664.16;5032518;28;20533;-67
2021/11/22 01:15:21;;;;;;;17.77;3.08;;;;;;;2.45;95.35;101671.00;5028626;28;20404;-67
2021/11/22 01:17:48;;;;;;;9.70;3.53;;;;;;;2.54;95.40;101678.19;5037929;28;20033;-67
2021/11/22 01:20:16;;;;;;;15.95;3.85;;;;;;;2.54;95.48;101673.06;5016455;28;20040;-66
2021/11/22 01:22:42;;;;;;;18.88;4.00;;;;;;;2.53;95.47;101676.53;5036405;28;20063;-67
2021/11/22 01:25:10;;;;;;;16.02;4.10;;;;;;;2.50;95.95;101684.38;5031308;28;20044;-66
2021/11/22 01:27:36;;;;;;;18.58;3.40;;;;;;;2.54;96.46;101691.00;5034143;28;20028;-67
2021/11/22 01:30:14;;;;;;;15.30;3.83;;;;;;;2.61;96.67;101700.00;5031575;28;20020;-67
2021/11/22 01:32:41;;;;;;;11.68;3.67;;;;;;;2.58;96.65;101694.22;5049777;28;20060;-67
2021/11/22 01:35:08;;;;;;;11.10;3.63;;;;;;;2.65;96.92;101695.53;5030176;28;20026;-66
2021/11/22 01:37:34;;;;;;;14.88;4.43;;;;;;;2.66;96.91;101694.66;5036774;28;20106;-66
2021/11/22 01:39:59;;;;;;;16.15;4.43;;;;;;;2.75;97.45;101701.84;5032997;28;20668;-67
2021/11/22 01:42:26;;;;;;;14.98;4.10;;;;;;;2.75;97.32;101711.22;5051898;28;20054;-67
2021/11/22 01:44:52;;;;;;;17.05;4.13;;;;;;;2.79;97.23;101710.16;5029805;28;20522;-67
2021/11/22 01:47:20;;;;;;;17.00;4.78;;;;;;;2.82;97.17;101715.94;5031396;28;20033;-67
2021/11/22 01:49:46;;;;;;;14.63;4.53;;;;;;;2.85;97.44;101720.09;5032080;28;20061;-67
2021/11/22 01:52:11;;;;;;;15.18;5.65;;;;;;;2.93;97.41;101728.16;5033951;28;20112;-66
2021/11/22 01:54:37;;;;;;;21.27;7.13;;;;;;;2.99;97.58;101721.88;5020336;28;20040;-66
2021/11/22 01:57:03;;;;;;;12.60;6.32;;;;;;;2.97;98.01;101739.09;5036750;28;20038;-67
2021/11/22 01:59:29;;;;;;;22.73;6.35;;;;;;;3.00;98.03;101729.50;5040063;28;20036;-66
2021/11/22 02:01:54;;;;;;;29.48;9.70;;;;;;;3.15;97.24;101740.66;5030677;28;20029;-67
2021/11/22 02:04:20;;;;;;;28.80;11.18;;;;;;;3.15;97.86;101750.91;5043355;28;20526;-67
2021/11/22 02:06:46;;;;;;;24.42;9.57;;;;;;;3.14;97.86;101746.66;5032462;28;20059;-66
2021/11/22 02:09:11;;;;;;;25.83;10.27;;;;;;;3.15;97.75;101750.91;5032262;28;20043;-66
2021/11/22 02:11:37;;;;;;;38.53;14.18;;;;;;;3.18;98.10;101755.03;5025296;28;20144;-67
2021/11/22 02:14:04;;;;;;;29.42;12.27;;;;;;;3.24;98.50;101752.09;5052013;28;20043;-67
2021/11/22 02:16:34;;;;;;;32.10;15.25;;;;;;;3.29;98.28;101760.38;5028665;28;20045;-67
2021/11/22 02:19:02;;;;;;;35.33;15.43;;;;;;;3.33;98.43;101763.59;5034967;28;20029;-66
2021/11/22 02:21:28;;;;;;;39.50;17.55;;;;;;;3.31;98.09;101756.84;5028313;28;20041;-66
2021/11/22 02:23:54;;;;;;;34.53;15.93;;;;;;;3.30;98.52;101759.47;5041782;28;20052;-67
2021/11/22 02:26:22;;;;;;;38.25;17.80;;;;;;;3.30;98.83;101772.28;5028940;28;20391;-67
2021/11/22 02:28:48;;;;;;;45.75;17.90;;;;;;;3.32;98.64;101770.47;5033321;28;20081;-66
2021/11/22 02:31:16;;;;;;;47.72;21.30;;;;;;;3.39;98.65;101778.63;5032305;28;20033;-67
2021/11/22 02:33:42;;;;;;;56.58;21.55;;;;;;;3.42;98.57;101774.16;5028131;28;20078;-66
2021/11/22 02:36:07;;;;;;;42.85;21.45;;;;;;;3.47;98.15;101776.50;5032540;28;20045;-67
2021/11/22 02:38:39;;;;;;;44.08;21.48;;;;;;;3.47;98.06;101782.44;5030404;28;20060;-66
2021/11/22 02:41:06;;;;;;;43.20;20.98;;;;;;;3.45;98.36;101793.69;5034521;28;20037;-66
2021/11/22 02:43:40;;;;;;;47.65;21.08;;;;;;;3.51;98.51;101789.03;5027399;28;20057;-67
2021/11/22 02:46:06;;;;;;;51.35;22.13;;;;;;;3.52;98.06;101792.41;5031633;28;20180;-66
2021/11/22 02:48:32;;;;;;;49.45;21.27;;;;;;;3.50;98.47;101802.78;5036101;28;20033;-66
2021/11/22 02:50:59;;;;;;;42.53;21.50;;;;;;;3.60;98.58;101805.66;5032168;28;20385;-66
2021/11/22 02:53:27;;;;;;;53.17;23.67;;;;;;;3.61;98.18;101801.34;5031696;28;20047;-67
2021/11/22 02:55:58;;;;;;;46.88;22.40;;;;;;;3.56;97.81;101801.63;5027707;28;20041;-66
2021/11/22 02:58:26;;;;;;;48.83;22.63;;;;;;;3.63;98.03;101800.34;5032352;28;20041;-67
2021/11/22 03:00:53;;;;;;;53.35;23.70;;;;;;;3.58;98.16;101797.22;5030336;28;20029;-67
2021/11/22 03:03:25;;;;;;;54.20;22.65;;;;;;;3.63;98.29;101802.91;5036103;28;20080;-66
2021/11/22 03:06:04;;;;;;;49.85;23.70;;;;;;;3.72;98.13;101806.69;5036811;28;20458;-67
2021/11/22 03:08:30;;;;;;;52.17;22.25;;;;;;;3.69;97.96;101812.84;5034773;28;20204;-67
2021/11/22 03:10:56;;;;;;;49.30;22.88;;;;;;;3.68;97.72;101811.19;5031144;28;20122;-66
2021/11/22 03:13:22;;;;;;;46.70;21.30;;;;;;;3.69;97.59;101805.16;5035495;28;20423;-66
2021/11/22 03:15:47;;;;;;;44.30;20.73;;;;;;;3.78;97.75;101811.47;5029026;28;20384;-67
2021/11/22 03:18:12;;;;;;;42.35;20.85;;;;;;;3.88;97.07;101812.63;5030780;28;20037;-67
2021/11/22 03:20:38;;;;;;;37.42;19.33;;;;;;;3.82;96.84;101820.66;5028802;28;20377;-66
2021/11/22 03:23:03;;;;;;;38.42;18.48;;;;;;;3.83;97.17;101824.88;5031828;28;20393;-66
2021/11/22 03:25:31;;;;;;;34.83;16.83;;;;;;;3.89;96.79;101824.53;5028507;28;20029;-67
2021/11/22 03:27:56;;;;;;;41.05;18.92;;;;;;;3.88;96.83;101825.47;5031514;28;20607;-66
2021/11/22 03:30:26;;;;;;;35.13;17.45;;;;;;;3.88;96.42;101830.59;5031310;28;20495;-66
2021/11/22 03:32:51;;;;;;;34.08;17.40;;;;;;;3.91;96.21;101829.56;5034329;28;20029;-66
2021/11/22 03:35:17;;;;;;;36.58;18.05;;;;;;;3.85;96.87;101822.22;5030345;28;20029;-67
2021/11/22 03:37:43;;;;;;;32.70;17.38;;;;;;;3.90;96.80;101833.06;5034640;28;20406;-66
2021/11/22 03:40:10;;;;;;;33.42;15.43;;;;;;;4.02;95.75;101839.25;5035382;28;20041;-66
2021/11/22 03:42:40;;;;;;;34.60;16.95;;;;;;;4.10;94.98;101850.69;5037225;28;20037;-66
2021/11/22 03:45:08;;;;;;;33.00;15.82;;;;;;;4.07;94.66;101848.31;5030356;28;20052;-67
2021/11/22 03:47:34;;;;;;;30.27;15.65;;;;;;;4.09;94.89;101855.94;5030688;28;20028;-66
2021/11/22 03:49:59;;;;;;;33.03;15.38;;;;;;;4.12;95.11;101854.94;5029432;28;20127;-67
2021/11/22 03:52:25;;;;;;;28.75;16.00;;;;;;;4.21;94.26;101856.97;5026756;28;20512;-66
2021/11/22 03:54:50;;;;;;;32.08;16.02;;;;;;;4.14;94.94;101855.66;5027850;28;20042;-66
2021/11/22 03:57:16;;;;;;;29.75;16.45;;;;;;;4.16;95.04;101862.34;5032849;28;20038;-67
2021/11/22 03:59:41;;;;;;;34.30;17.40;;;;;;;4.20;94.31;101863.00;5027145;28;20029;-66
2021/11/22 04:02:07;;;;;;;34.05;17.55;;;;;;;4.24;94.57;101872.22;5027769;28;20565;-66
2021/11/22 04:04:32;;;;;;;28.85;16.83;;;;;;;4.19;94.29;101879.34;5031373;28;20083;-66
2021/11/22 04:07:00;;;;;;;29.00;16.00;;;;;;;4.15;94.58;101886.41;5032463;28;20040;-66
2021/11/22 04:09:28;;;;;;;29.90;16.13;;;;;;;4.19;94.22;101892.19;5026922;28;20495;-66
2021/11/22 04:11:54;;;;;;;30.83;16.48;;;;;;;4.23;93.87;101889.34;5029079;28;20033;-66
2021/11/22 04:14:45;;;;;;;30.83;15.57;;;;;;;4.33;93.71;101899.09;5029458;28;20029;-66
2021/11/22 04:17:11;;;;;;;29.52;15.52;;;;;;;4.26;93.46;101896.06;5032949;28;20580;-67
2021/11/22 04:19:36;;;;;;;26.77;14.32;;;;;;;4.30;93.28;101902.66;5036971;28;20030;-66
2021/11/22 04:22:03;;;;;;;25.85;14.55;;;;;;;4.29;93.60;101912.13;5030294;28;20164;-67
2021/11/22 04:24:28;;;;;;;23.90;13.60;;;;;;;4.34;93.36;101921.28;5036533;28;20032;-67
2021/11/22 04:26:57;;;;;;;26.58;13.38;;;;;;;4.35;93.21;101918.66;5033054;28;20407;-66
2021/11/22 04:29:22;;;;;;;24.10;13.32;;;;;;;4.35;93.13;101923.78;5030561;28;20483;-66
2021/11/22 04:31:48;;;;;;;27.40;12.27;;;;;;;4.41;92.45;101917.47;5033835;28;20029;-66
2021/11/22 04:34:13;;;;;;;22.75;13.32;;;;;;;4.40;92.63;101926.88;5033578;28;20048;-66
2021/11/22 04:36:39;;;;;;;24.40;12.93;;;;;;;4.34;93.06;101934.94;5015887;28;20030;-66
2021/11/22 04:39:05;;;;;;;27.02;14.32;;;;;;;4.42;93.36;101932.75;5035317;28;20119;-66
2021/11/22 04:41:30;;;;;;;22.88;12.18;;;;;;;4.36;93.63;101935.69;5030165;28;20033;-66
2021/11/22 04:43:57;;;;;;;23.65;12.23;;;;;;;4.34;93.88;101937.53;5031985;28;20032;-66
2021/11/22 04:46:22;;;;;;;21.38;12.30;;;;;;;4.33;93.86;101941.00;5030836;28;20033;-65
2021/11/22 04:48:48;;;;;;;22.58;12.63;;;;;;;4.31;93.59;101942.81;5031432;28;20030;-66
2021/11/22 04:51:13;;;;;;;22.92;11.95;;;;;;;4.29;93.94;101947.22;5026507;28;20040;-67
2021/11/22 04:53:39;;;;;;;19.60;11.23;;;;;;;4.29;94.18;101954.94;5035754;28;20128;-66
2021/11/22 04:56:05;;;;;;;20.00;11.68;;;;;;;4.31;94.07;101958.22;5031773;28;20029;-66
2021/11/22 04:58:31;;;;;;;19.38;10.90;;;;;;;4.29;93.74;101968.63;5027307;28;20029;-66
2021/11/22 05:00:57;;;;;;;19.38;11.15;;;;;;;4.32;94.09;101970.16;5027794;28;20033;-66
2021/11/22 05:03:23;;;;;;;19.75;11.43;;;;;;;4.33;93.59;101966.66;5031210;28;20454;-66
2021/11/22 05:05:48;;;;;;;18.67;11.23;;;;;;;4.30;93.65;101972.00;5023800;28;20108;-66
2021/11/22 05:08:14;;;;;;;19.88;10.48;;;;;;;4.31;93.77;101971.06;5031671;28;20044;-66
2021/11/22 05:10:45;;;;;;;21.60;10.48;;;;;;;4.29;93.37;101976.31;5027137;28;20453;-67
2021/11/22 05:13:14;;;;;;;20.08;11.07;;;;;;;4.27;93.77;101982.44;5026880;28;20041;-65
2021/11/22 05:15:41;;;;;;;17.67;10.00;;;;;;;4.27;93.36;101982.44;5023380;28;20080;-66
2021/11/22 05:18:09;;;;;;;18.00;10.35;;;;;;;4.25;93.36;101990.22;5034275;28;20033;-66
2021/11/22 05:20:36;;;;;;;18.20;10.48;;;;;;;4.25;93.16;101994.53;5025195;28;20068;-65
2021/11/22 05:23:03;;;;;;;18.50;10.80;;;;;;;4.26;93.72;102001.34;5016639;28;20032;-66
2021/11/22 05:25:29;;;;;;;18.52;11.13;;;;;;;4.26;93.51;102011.59;5036450;28;20083;-66
2021/11/22 05:27:54;;;;;;;20.13;11.73;;;;;;;4.34;93.17;102013.75;5023593;28;20025;-66
2021/11/22 05:30:26;;;;;;;20.08;11.50;;;;;;;4.32;91.86;102013.81;5045772;28;20462;-66
2021/11/22 05:32:56;;;;;;;18.60;11.15;;;;;;;4.36;91.04;102012.75;5039007;28;20021;-66
2021/11/22 05:35:22;;;;;;;17.20;10.38;;;;;;;4.34;91.47;102018.88;5033697;28;20048;-66
2021/11/22 05:37:47;;;;;;;18.85;11.05;;;;;;;4.29;91.68;102017.41;5043273;28;20032;-66
2021/11/22 05:40:13;;;;;;;19.38;10.98;;;;;;;4.30;91.18;102033.63;5035834;28;20036;-66
2021/11/22 05:42:38;;;;;;;19.58;11.90;;;;;;;4.27;89.94;102029.47;5032185;28;20515;-66
2021/11/22 05:45:05;;;;;;;17.60;11.27;;;;;;;4.25;90.25;102031.31;5035889;28;20042;-66
2021/11/22 05:47:30;;;;;;;18.63;10.25;;;;;;;4.28;89.40;102038.03;5037927;28;20384;-65
2021/11/22 05:50:03;;;;;;;15.25;10.00;;;;;;;4.31;89.23;102049.84;5018070;28;20040;-66
2021/11/22 05:52:29;;;;;;;;;;;;;;;4.27;88.90;102049.19;5034894;28;20037;-66
2021/11/22 05:54:56;;;;;;;18.17;11.15;;;;;;;4.22;89.35;102041.75;5035727;28;19924;-66
2021/11/22 05:57:23;;;;;;;15.45;9.35;;;;;;;4.22;88.91;102046.03;5036865;28;20037;-66
2021/11/22 05:59:49;;;;;;;16.10;9.80;;;;;;;4.20;89.29;102051.28;5035912;28;20435;-66
2021/11/22 06:02:15;;;;;;;14.75;9.02;;;;;;;4.27;89.49;102055.16;5039348;28;20040;-66
2021/11/22 06:04:41;;;;;;;20.00;9.68;;;;;;;4.19;89.30;102049.63;5033943;28;20033;-66
2021/11/22 06:07:07;;;;;;;13.73;8.45;;;;;;;4.21;89.94;102057.25;5039920;28;20059;-65
2021/11/22 06:09:33;;;;;;;15.75;8.98;;;;;;;4.18;90.20;102049.69;5038432;28;20025;-66
2021/11/22 06:11:59;;;;;;;13.43;8.63;;;;;;;4.19;90.79;102061.63;5030163;28;20044;-66
2021/11/22 06:14:24;;;;;;;18.08;9.75;;;;;;;4.16;90.33;102057.47;5038238;28;20407;-66
2021/11/22 06:16:50;;;;;;;16.27;9.35;;;;;;;4.14;91.12;102059.31;5037160;28;20495;-66
2021/11/22 06:19:15;;;;;;;14.85;8.75;;;;;;;4.08;90.97;102062.22;5032410;28;20038;-66
2021/11/22 06:21:41;;;;;;;19.25;10.88;;;;;;;4.03;91.23;102072.75;5033700;28;20025;-66
2021/11/22 06:24:06;;;;;;;15.68;9.07;;;;;;;3.99;91.83;102073.78;5036533;28;20045;-66
2021/11/22 06:26:36;;;;;;;20.73;10.90;;;;;;;3.94;91.87;102080.94;5035069;28;20038;-66
2021/11/22 06:29:02;;;;;;;20.52;11.77;;;;;;;3.91;91.79;102086.22;5031066;28;20032;-66
2021/11/22 06:31:27;;;;;;;21.80;10.98;;;;;;;3.93;91.75;102088.72;5037332;28;20432;-66
2021/11/22 06:33:53;;;;;;;17.30;10.38;;;;;;;3.88;92.09;102092.34;5036438;28;20025;-66
2021/11/22 06:36:18;;;;;;;15.75;9.80;;;;;;;3.84;91.81;102084.88;5036722;28;20033;-66
2021/11/22 06:38:44;;;;;;;18.88;11.25;;;;;;;3.79;92.08;102092.81;5030204;28;20044;-65
2021/11/22 06:41:09;;;;;;;19.85;11.43;;;;;;;3.77;92.52;102096.38;5049525;28;20069;-65
2021/11/22 06:43:35;;;;;;;19.80;10.18;;;;;;;3.81;91.62;102105.59;5034538;28;20039;-66
2021/11/22 06:46:00;;;;;;;18.48;10.60;;;;;;;3.76;91.84;102107.56;5041002;28;20025;-65
2021/11/22 06:48:26;;;;;;;21.25;10.73;;;;;;;3.72;92.11;102108.63;5032460;28;20520;-66
2021/11/22 06:50:55;;;;;;;18.10;10.45;;;;;;;3.74;91.91;102109.38;5030743;28;20033;-66
2021/11/22 06:53:22;;;;;;;19.33;11.63;;;;;;;3.73;91.63;102113.69;5031892;28;20068;-65
2021/11/22 06:55:49;;;;;;;18.92;11.70;;;;;;;3.67;91.60;102114.81;5031853;28;20037;-66
2021/11/22 06:58:14;;;;;;;19.70;11.18;;;;;;;3.64;91.47;102117.53;5032234;28;20037;-66
2021/11/22 07:00:40;;;;;;;19.92;10.18;;;;;;;3.75;91.21;102134.97;5034814;28;20083;-66
2021/11/22 07:03:06;;;;;;;20.65;10.05;;;;;;;3.79;91.69;102133.06;5037234;28;20093;-66
2021/11/22 07:05:32;;;;;;;19.73;10.65;;;;;;;3.76;92.07;102141.72;5030433;28;20039;-66
2021/11/22 07:07:58;;;;;;;18.38;10.07;;;;;;;3.74;91.87;102153.81;5031600;28;20120;-66
2021/11/22 07:10:24;;;;;;;19.10;10.48;;;;;;;3.66;92.79;102161.06;5033306;28;20025;-66
2021/11/22 07:12:51;;;;;;;22.17;11.15;;;;;;;3.75;92.64;102159.75;5037418;28;20522;-66
2021/11/22 07:15:21;;;;;;;20.70;12.57;;;;;;;3.73;92.63;102162.44;5034325;28;20111;-66
2021/11/22 07:17:51;;;;;;;18.95;11.38;;;;;;;3.69;92.99;102171.16;5045278;28;20029;-66
2021/11/22 07:20:18;;;;;;;18.08;10.88;;;;;;;3.70;93.14;102178.78;5012162;28;20048;-66
2021/11/22 07:22:43;;;;;;;20.77;10.65;;;;;;;3.70;93.20;102185.66;5028039;28;20416;-66
2021/11/22 07:25:12;;;;;;;17.60;11.68;;;;;;;3.70;93.17;102195.94;5031316;28;20044;-66
2021/11/22 07:27:37;;;;;;;18.73;11.23;;;;;;;3.64;93.09;102198.81;5034408;28;20033;-66
2021/11/22 07:30:05;;;;;;;24.02;12.13;;;;;;;3.58;92.95;102205.06;5028218;28;20131;-66
2021/11/22 07:32:31;;;;;;;22.23;12.13;;;;;;;3.66;92.94;102202.13;5043499;28;20083;-66
2021/11/22 07:34:57;;;;;;;20.92;11.55;;;;;;;3.65;92.10;102208.97;5027671;28;20033;-65
2021/11/22 07:37:26;;;;;;;24.10;12.57;;;;;;;3.59;92.61;102214.41;5026449;28;20056;-66
2021/11/22 07:39:52;;;;;;;22.23;12.40;;;;;;;3.55;92.79;102219.78;5028933;28;20489;-66
2021/11/22 07:42:17;;;;;;;21.38;11.63;;;;;;;3.58;92.64;102222.19;5027309;28;20108;-66
2021/11/22 07:44:47;;;;;;;18.27;10.75;;;;;;;3.56;92.59;102227.41;5031032;28;20491;-66
2021/11/22 07:47:13;;;;;;;17.65;9.70;;;;;;;3.59;92.69;102229.81;5028297;28;20037;-67
2021/11/22 07:49:39;;;;;;;15.50;9.90;;;;;;;3.56;93.21;102241.94;5038926;28;20037;-66
2021/11/22 07:52:06;;;;;;;15.90;9.80;;;;;;;3.59;92.47;102241.81;5028806;28;20068;-66
2021/11/22 07:54:32;;;;;;;54.40;23.02;;;;;;;3.59;92.35;102247.75;5039064;28;20563;-65
2021/11/22 07:56:58;;;;;;;23.05;10.60;;;;;;;3.51;92.89;102260.97;5033403;28;20045;-66
2021/11/22 07:59:23;;;;;;;19.17;10.07;;;;;;;3.46;93.23;102251.84;5027846;28;20029;-66
2021/11/22 08:01:49;;;;;;;17.50;9.77;;;;;;;3.51;93.15;102249.88;5029000;28;20094;-66
2021/11/22 08:04:17;;;;;;;17.35;10.18;;;;;;;3.49;92.76;102261.94;5030862;28;20041;-66
2021/11/22 08:06:55;;;;;;;16.20;9.35;;;;;;;3.48;93.17;102258.56;5034937;28;20026;-66
2021/11/22 08:09:28;;;;;;;16.20;9.32;;;;;;;3.50;93.52;102266.16;5035406;28;20550;-66
2021/11/22 08:14:29;;;;;;;17.80;11.20;;;;;;;3.62;93.35;102272.47;5025788;28;20056;-66
2021/11/22 08:16:58;;;;;;;26.10;12.70;;;;;;;3.65;93.04;102278.25;5032692;28;20029;-66
2021/11/22 08:19:24;;;;;;;20.80;12.70;;;;;;;3.65;92.59;102275.66;5027305;28;20528;-66
2021/11/22 08:21:49;;;;;;;26.23;15.40;;;;;;;3.65;92.64;102283.38;5028122;28;20104;-66
2021/11/22 08:24:15;;;;;;;82.63;43.42;;;;;;;3.66;92.45;102287.59;5031381;28;20030;-66
2021/11/22 08:26:40;;;;;;;34.90;19.48;;;;;;;3.83;91.67;102288.53;5030497;28;20104;-66
2021/11/22 08:29:06;;;;;;;32.78;19.63;;;;;;;3.86;91.28;102293.50;5023500;28;20487;-66
2021/11/22 08:31:32;;;;;;;73.68;38.25;;;;;;;3.78;91.66;102303.31;5028682;28;20495;-66
2021/11/22 08:33:57;;;;;;;32.35;18.35;;;;;;;3.86;91.39;102299.47;5030775;28;20040;-65
2021/11/22 08:36:25;;;;;;;22.88;13.02;;;;;;;3.76;90.93;102307.69;5029382;28;20117;-65
2021/11/22 08:38:51;;;;;;;24.50;13.50;;;;;;;3.64;91.72;102309.13;5029986;28;20033;-66
2021/11/22 08:41:17;;;;;;;22.05;13.02;;;;;;;3.68;91.79;102314.03;5032421;28;20106;-65
2021/11/22 08:43:42;;;;;;;22.75;13.00;;;;;;;3.76;91.50;102320.53;5035375;28;20547;-65
2021/11/22 08:46:08;;;;;;;26.02;13.23;;;;;;;3.77;91.39;102317.03;5033255;28;20029;-66
2021/11/22 08:48:33;;;;;;;24.75;14.10;;;;;;;3.84;91.74;102324.38;5027856;28;20044;-66
2021/11/22 08:51:02;;;;;;;29.75;14.27;;;;;;;3.92;91.38;102330.84;5038878;28;20032;-66
2021/11/22 08:53:27;;;;;;;27.35;14.50;;;;;;;3.94;91.34;102334.19;5031270;28;20064;-66
2021/11/22 08:55:53;;;;;;;25.73;14.52;;;;;;;3.94;91.06;102339.31;5028745;28;20064;-66
2021/11/22 08:58:18;;;;;;;27.58;14.32;;;;;;;3.95;91.66;102344.38;5030287;28;20473;-66
2021/11/22 09:00:44;;;;;;;22.75;14.00;;;;;;;4.01;91.39;102343.25;5026117;28;20017;-66
2021/11/22 09:03:10;;;;;;;31.80;17.00;;;;;;;3.98;90.30;102344.25;5027728;28;20029;-65
2021/11/22 09:05:36;;;;;;;25.70;14.73;;;;;;;4.03;89.63;102352.56;5040601;28;20048;-66
2021/11/22 09:08:02;;;;;;;27.80;15.05;;;;;;;4.00;90.11;102351.88;5028169;28;20033;-66
2021/11/22 09:10:28;;;;;;;26.67;15.60;;;;;;;3.97;89.82;102362.28;5024227;28;20399;-66
2021/11/22 09:12:54;;;;;;;26.25;15.15;;;;;;;4.02;89.81;102357.75;5024339;28;20033;-66
2021/11/22 09:15:20;;;;;;;28.63;16.38;;;;;;;4.02;90.07;102362.88;5024389;28;20536;-66
2021/11/22 09:17:46;;;;;;;27.90;16.83;;;;;;;4.01;89.94;102356.06;5026371;28;20025;-66
2021/11/22 09:20:12;;;;;;;28.65;18.27;;;;;;;4.16;89.20;102355.31;5026266;28;20065;-65
2021/11/22 09:22:41;;;;;;;35.22;20.92;;;;;;;4.15;89.33;102356.25;5026495;28;20036;-65
2021/11/22 09:25:09;;;;;;;38.22;21.13;;;;;;;4.28;89.37;102375.25;5026330;28;20487;-65
2021/11/22 09:27:34;;;;;;;42.33;23.88;;;;;;;4.22;87.50;102367.88;5026842;28;20357;-66
2021/11/22 09:30:00;;;;;;;39.10;23.15;;;;;;;4.21;87.28;102376.47;5027193;28;20033;-65
2021/11/22 09:32:26;;;;;;;38.60;23.58;;;;;;;4.30;87.15;102375.19;5027397;28;20439;-65
2021/11/22 09:34:54;;;;;;;37.28;21.23;;;;;;;4.37;88.08;102380.84;5023510;28;20087;-66
2021/11/22 09:37:20;;;;;;;43.03;23.83;;;;;;;4.46;85.84;102390.66;5026376;28;20116;-65
2021/11/22 09:39:45;;;;;;;40.53;23.80;;;;;;;4.41;86.14;102388.31;5027414;28;20037;-65
2021/11/22 09:42:11;;;;;;;37.03;22.13;;;;;;;4.49;86.38;102391.34;5029334;28;20033;-66
2021/11/22 09:44:36;;;;;;;38.63;22.65;;;;;;;4.52;86.78;102392.94;5028927;28;20439;-65
2021/11/22 09:47:03;;;;;;;36.25;22.15;;;;;;;4.57;87.24;102390.13;5025055;28;20175;-65
2021/11/22 09:49:28;;;;;;;40.65;24.23;;;;;;;4.58;86.58;102404.63;5028683;28;20223;-66
2021/11/22 09:51:57;;;;;;;43.40;23.77;;;;;;;4.64;85.89;102399.19;5025488;28;20197;-66
2021/11/22 09:54:22;;;;;;;38.25;23.05;;;;;;;4.71;85.53;102404.81;5028912;28;20037;-66
2021/11/22 09:56:50;;;;;;;36.95;22.25;;;;;;;4.69;85.25;102404.94;5030523;28;20381;-65
2021/11/22 09:59:17;;;;;;;30.80;17.67;;;;;;;4.73;84.73;102403.84;5026384;28;20255;-66
2021/11/22 10:01:43;;;;;;;26.73;13.70;;;;;;;4.78;85.12;102403.59;5026882;28;20025;-66
2021/11/22 10:04:18;;;;;;;24.80;12.00;;;;;;;4.91;85.66;102401.22;5034455;28;20122;-66
2021/11/22 10:06:54;;;;;;;20.98;10.73;;;;;;;5.03;86.46;102405.75;5033126;28;20032;-66
2021/11/22 10:09:32;;;;;;;17.63;11.10;;;;;;;4.95;85.89;102413.84;5028305;28;20168;-66
2021/11/22 10:12:22;;;;;;;16.38;10.38;;;;;;;4.97;86.12;102412.03;5030961;28;20091;-66
2021/11/22 10:14:59;;;;;;;23.08;12.38;;;;;;;4.87;85.65;102424.53;5029303;28;20029;-65
2021/11/22 10:17:32;;;;;;;23.05;12.27;;;;;;;4.95;85.59;102429.25;5033716;28;20026;-65
2021/11/22 10:20:07;;;;;;;24.83;12.52;;;;;;;4.98;85.49;102421.41;5032008;28;20120;-65
2021/11/22 10:22:53;;;;;;;28.10;14.43;;;;;;;4.89;85.50;102419.31;5030214;28;20041;-65
2021/11/22 10:25:29;;;;;;;23.67;14.25;;;;;;;4.89;84.78;102424.44;5027893;28;20048;-66
2021/11/22 10:28:07;;;;;;;31.88;16.85;;;;;;;4.82;84.84;102423.94;5031120;28;20527;-66
2021/11/22 10:30:37;;;;;;;31.38;17.45;;;;;;;4.69;84.95;102433.19;5029242;28;20034;-66
2021/11/22 10:33:05;;;;;;;28.38;17.65;;;;;;;4.61;84.69;102428.41;5037918;28;20033;-65
2021/11/22 10:35:34;;;;;;;29.42;16.27;;;;;;;4.56;84.96;102432.13;5034654;28;20052;-65
2021/11/22 10:38:02;;;;;;;32.67;17.52;;;;;;;4.59;85.16;102426.84;5034737;28;20025;-66
2021/11/22 10:40:31;;;;;;;29.55;16.42;;;;;;;4.55;84.94;102436.44;5036958;28;20033;-65
2021/11/22 10:42:57;;;;;;;28.88;17.58;;;;;;;4.56;84.46;102424.41;5035218;28;20851;-65
2021/11/22 10:45:25;;;;;;;27.92;16.67;;;;;;;4.60;83.00;102423.38;5036708;28;20021;-66
2021/11/22 10:48:39;;;;;;;26.42;16.70;;;;;;;4.54;84.45;102427.09;5035035;28;20037;-66
2021/11/22 10:51:08;;;;;;;28.00;16.77;;;;;;;4.59;85.01;102424.28;5032307;28;20041;-66
2021/11/22 10:53:40;;;;;;;29.27;16.27;;;;;;;4.57;83.31;102434.63;5037928;28;20418;-66
2021/11/22 10:56:11;;;;;;;30.08;17.25;;;;;;;4.56;83.97;102425.25;5029907;28;20488;-65
2021/11/22 10:58:50;;;;;;;29.10;17.73;;;;;;;4.53;84.81;102427.16;5034520;28;20462;-65
2021/11/22 11:01:34;;;;;;;25.02;15.63;;;;;;;4.52;84.90;102433.19;5031309;28;20029;-65
2021/11/22 11:04:21;;;;;;;29.55;16.80;;;;;;;4.58;83.94;102428.59;5032409;28;20037;-66
2021/11/22 11:06:48;;;;;;;26.80;16.35;;;;;;;4.62;83.86;102429.28;5037652;28;20506;-66
2021/11/22 11:09:23;;;;;;;27.95;16.33;;;;;;;4.61;83.86;102432.72;5032463;28;20124;-66
2021/11/22 11:12:01;;;;;;;26.05;14.27;;;;;;;4.62;82.75;102436.97;5034381;28;20037;-66
2021/11/22 11:14:29;;;;;;;30.25;19.00;;;;;;;4.80;82.53;102433.47;5035824;28;20038;-65
2021/11/22 11:17:08;;;;;;;29.17;16.52;;;;;;;4.79;82.32;102436.13;5028986;28;20029;-65
2021/11/22 11:19:36;;;;;;;28.27;15.90;;;;;;;4.82;81.29;102426.53;5034154;28;20043;-66
2021/11/22 11:22:05;;;;;;;26.52;15.50;;;;;;;4.83;81.27;102425.59;5042059;28;20043;-66
2021/11/22 11:24:30;;;;;;;21.85;13.93;;;;;;;4.86;80.58;102427.19;5034933;28;20033;-66